Terminal Aerodrome Forecast
Issued by NWS Pueblo, CO

Home | Current Version | Previous Version | Text Only | Print | Product List | Glossary On
Versions: 1 2 3 4 5 6 7 8 9 10 11 12 13 14 15 16 17 18 19 20 21 22 23 24
000
FTUS45 KPUB 212357 AAA
TAFPUB
TAF AMD
KPUB 212357Z 2200/2224 35015G25KT P6SM VCSH FEW060 OVC090
     FM220400 35015G30KT P6SM BKN080
     FM220700 32012KT P6SM BKN200
     FM221300 30010KT P6SM SKC
     FM221700 30015G25KT P6SM SKC=

USA.gov is the U.S. government's official web portal to all federal, state and local government web resources and services.